sensor_id;sensor_type;location;lat;lon;timestamp;pressure;altitude;pressure_sealevel;temperature;humidity
34506;BME280;20748;42.632;23.198;2023-07-29T00:00:06;92013.44;;;16.54;71.66
34506;BME280;20748;42.632;23.198;2023-07-29T00:02:44;92005.22;;;16.56;71.62
34506;BME280;20748;42.632;23.198;2023-07-29T00:05:17;92010.03;;;16.54;71.20
34506;BME280;20748;42.632;23.198;2023-07-29T00:07:49;92005.53;;;16.54;71.93
34506;BME280;20748;42.632;23.198;2023-07-29T00:10:22;92009.47;;;16.60;72.21
34506;BME280;20748;42.632;23.198;2023-07-29T00:12:54;92012.00;;;16.57;72.50
34506;BME280;20748;42.632;23.198;2023-07-29T00:15:27;92008.09;;;16.50;72.33
34506;BME280;20748;42.632;23.198;2023-07-29T00:18:00;92002.09;;;16.37;72.80
34506;BME280;20748;42.632;23.198;2023-07-29T00:20:32;91998.69;;;16.37;72.69
34506;BME280;20748;42.632;23.198;2023-07-29T00:23:05;92000.47;;;16.33;72.81
34506;BME280;20748;42.632;23.198;2023-07-29T00:25:37;91996.63;;;16.30;72.75
34506;BME280;20748;42.632;23.198;2023-07-29T00:28:09;91996.72;;;16.34;72.82
34506;BME280;20748;42.632;23.198;2023-07-29T00:30:42;91998.38;;;16.26;73.39
34506;BME280;20748;42.632;23.198;2023-07-29T00:33:15;91985.22;;;16.26;73.62
34506;BME280;20748;42.632;23.198;2023-07-29T00:35:48;91976.44;;;16.22;73.57
34506;BME280;20748;42.632;23.198;2023-07-29T00:38:20;91986.31;;;16.25;73.61
34506;BME280;20748;42.632;23.198;2023-07-29T00:40:53;91990.28;;;16.19;73.91
34506;BME280;20748;42.632;23.198;2023-07-29T00:43:25;91982.06;;;16.20;74.00
34506;BME280;20748;42.632;23.198;2023-07-29T00:45:57;91987.56;;;16.15;74.68
34506;BME280;20748;42.632;23.198;2023-07-29T00:48:31;91989.41;;;16.15;74.73
34506;BME280;20748;42.632;23.198;2023-07-29T00:51:03;91985.94;;;15.98;75.47
34506;BME280;20748;42.632;23.198;2023-07-29T00:53:36;91988.69;;;16.02;75.14
34506;BME280;20748;42.632;23.198;2023-07-29T00:56:08;91986.06;;;16.02;75.04
34506;BME280;20748;42.632;23.198;2023-07-29T00:58:43;91984.41;;;15.97;75.20
34506;BME280;20748;42.632;23.198;2023-07-29T01:01:16;91982.13;;;15.95;75.28
34506;BME280;20748;42.632;23.198;2023-07-29T01:03:50;91981.56;;;15.77;76.37
34506;BME280;20748;42.632;23.198;2023-07-29T01:06:29;91985.41;;;15.67;76.96
34506;BME280;20748;42.632;23.198;2023-07-29T01:09:08;91978.25;;;15.68;77.06
34506;BME280;20748;42.632;23.198;2023-07-29T01:12:01;91982.78;;;15.67;76.95
34506;BME280;20748;42.632;23.198;2023-07-29T01:14:41;91981.88;;;15.76;76.55
34506;BME280;20748;42.632;23.198;2023-07-29T01:17:22;91979.13;;;15.84;76.84
34506;BME280;20748;42.632;23.198;2023-07-29T01:20:00;91977.69;;;15.87;76.50
34506;BME280;20748;42.632;23.198;2023-07-29T01:22:36;91974.44;;;15.90;76.62
34506;BME280;20748;42.632;23.198;2023-07-29T01:25:09;91979.22;;;15.88;76.25
34506;BME280;20748;42.632;23.198;2023-07-29T01:27:43;91979.13;;;15.84;76.42
34506;BME280;20748;42.632;23.198;2023-07-29T01:30:15;91973.09;;;15.71;77.12
34506;BME280;20748;42.632;23.198;2023-07-29T01:32:53;91980.69;;;15.61;77.64
34506;BME280;20748;42.632;23.198;2023-07-29T01:35:31;91982.66;;;15.64;77.31
34506;BME280;20748;42.632;23.198;2023-07-29T01:38:08;91981.88;;;15.63;77.55
34506;BME280;20748;42.632;23.198;2023-07-29T01:40:43;91989.09;;;15.54;78.08
34506;BME280;20748;42.632;23.198;2023-07-29T01:43:16;91983.44;;;15.52;77.79
34506;BME280;20748;42.632;23.198;2023-07-29T01:45:50;91975.09;;;15.50;77.77
34506;BME280;20748;42.632;23.198;2023-07-29T01:48:23;91978.28;;;15.55;78.08
34506;BME280;20748;42.632;23.198;2023-07-29T01:50:55;91971.91;;;15.56;78.00
34506;BME280;20748;42.632;23.198;2023-07-29T01:53:28;91978.16;;;15.52;78.48
34506;BME280;20748;42.632;23.198;2023-07-29T01:56:02;91976.63;;;15.51;78.28
34506;BME280;20748;42.632;23.198;2023-07-29T01:58:35;91981.69;;;15.43;78.52
34506;BME280;20748;42.632;23.198;2023-07-29T02:01:08;91981.00;;;15.47;78.52
34506;BME280;20748;42.632;23.198;2023-07-29T02:03:40;91981.47;;;15.49;78.55
34506;BME280;20748;42.632;23.198;2023-07-29T02:06:13;91980.69;;;15.48;78.29
34506;BME280;20748;42.632;23.198;2023-07-29T02:08:46;91983.09;;;15.41;78.81
34506;BME280;20748;42.632;23.198;2023-07-29T02:11:19;91981.91;;;15.38;79.05
34506;BME280;20748;42.632;23.198;2023-07-29T02:13:52;91984.06;;;15.36;79.33
34506;BME280;20748;42.632;23.198;2023-07-29T02:16:24;91985.16;;;15.35;79.19
34506;BME280;20748;42.632;23.198;2023-07-29T02:18:57;91985.84;;;15.32;78.85
34506;BME280;20748;42.632;23.198;2023-07-29T02:21:30;91983.41;;;15.27;79.18
34506;BME280;20748;42.632;23.198;2023-07-29T02:24:02;91986.25;;;15.34;78.76
34506;BME280;20748;42.632;23.198;2023-07-29T02:26:35;91986.38;;;15.25;79.32
34506;BME280;20748;42.632;23.198;2023-07-29T02:29:08;91983.50;;;15.18;79.38
34506;BME280;20748;42.632;23.198;2023-07-29T02:31:41;91982.41;;;15.19;78.92
34506;BME280;20748;42.632;23.198;2023-07-29T02:34:13;91979.47;;;15.21;79.22
34506;BME280;20748;42.632;23.198;2023-07-29T02:36:46;91975.19;;;15.16;79.91
34506;BME280;20748;42.632;23.198;2023-07-29T02:39:18;91981.63;;;15.19;79.44
34506;BME280;20748;42.632;23.198;2023-07-29T02:41:51;91980.09;;;15.17;79.19
34506;BME280;20748;42.632;23.198;2023-07-29T02:44:24;91979.66;;;15.03;80.17
34506;BME280;20748;42.632;23.198;2023-07-29T02:46:56;91984.25;;;15.06;79.70
34506;BME280;20748;42.632;23.198;2023-07-29T02:49:29;91981.63;;;15.06;79.39
34506;BME280;20748;42.632;23.198;2023-07-29T02:52:01;91985.34;;;15.05;79.63
34506;BME280;20748;42.632;23.198;2023-07-29T02:54:34;91978.69;;;15.08;79.41
34506;BME280;20748;42.632;23.198;2023-07-29T02:57:07;91985.81;;;15.07;80.21
34506;BME280;20748;42.632;23.198;2023-07-29T02:59:39;91988.63;;;15.02;80.24
34506;BME280;20748;42.632;23.198;2023-07-29T03:02:11;91994.22;;;15.00;80.34
34506;BME280;20748;42.632;23.198;2023-07-29T03:04:44;91994.50;;;14.86;81.08
34506;BME280;20748;42.632;23.198;2023-07-29T03:07:16;91991.78;;;14.95;80.59
34506;BME280;20748;42.632;23.198;2023-07-29T03:09:49;91995.28;;;14.87;81.59
34506;BME280;20748;42.632;23.198;2023-07-29T03:12:22;91994.63;;;14.90;81.24
34506;BME280;20748;42.632;23.198;2023-07-29T03:14:54;91996.63;;;14.93;81.14
34506;BME280;20748;42.632;23.198;2023-07-29T03:17:28;91994.06;;;14.84;81.55
34506;BME280;20748;42.632;23.198;2023-07-29T03:20:01;91995.03;;;14.80;81.62
34506;BME280;20748;42.632;23.198;2023-07-29T03:22:33;91994.91;;;14.76;81.79
34506;BME280;20748;42.632;23.198;2023-07-29T03:25:06;92002.47;;;14.77;81.44
34506;BME280;20748;42.632;23.198;2023-07-29T03:27:39;92001.25;;;14.75;81.72
34506;BME280;20748;42.632;23.198;2023-07-29T03:30:12;91992.06;;;14.81;81.89
34506;BME280;20748;42.632;23.198;2023-07-29T03:32:44;91992.63;;;14.74;82.20
34506;BME280;20748;42.632;23.198;2023-07-29T03:35:17;91990.13;;;14.78;82.21
34506;BME280;20748;42.632;23.198;2023-07-29T03:37:49;91984.75;;;14.74;82.28
34506;BME280;20748;42.632;23.198;2023-07-29T03:40:22;91990.88;;;14.79;82.42
34506;BME280;20748;42.632;23.198;2023-07-29T03:42:55;91988.69;;;14.81;82.03
34506;BME280;20748;42.632;23.198;2023-07-29T03:45:27;91982.50;;;14.64;82.74
34506;BME280;20748;42.632;23.198;2023-07-29T03:48:00;91986.44;;;14.70;82.82
34506;BME280;20748;42.632;23.198;2023-07-29T03:50:34;91984.66;;;14.62;83.56
34506;BME280;20748;42.632;23.198;2023-07-29T03:53:06;91980.19;;;14.62;83.07
34506;BME280;20748;42.632;23.198;2023-07-29T03:55:39;91987.97;;;14.71;82.84
34506;BME280;20748;42.632;23.198;2023-07-29T03:58:12;91985.50;;;14.75;82.83
34506;BME280;20748;42.632;23.198;2023-07-29T04:00:44;91986.56;;;14.74;83.70
34506;BME280;20748;42.632;23.198;2023-07-29T04:03:17;91991.81;;;14.74;82.94
34506;BME280;20748;42.632;23.198;2023-07-29T04:05:50;91991.69;;;14.70;83.57
34506;BME280;20748;42.632;23.198;2023-07-29T04:08:23;91996.59;;;14.81;83.62
34506;BME280;20748;42.632;23.198;2023-07-29T04:10:55;91992.06;;;14.81;83.78
34506;BME280;20748;42.632;23.198;2023-07-29T04:13:29;91990.56;;;14.80;84.18
34506;BME280;20748;42.632;23.198;2023-07-29T04:16:01;91988.34;;;14.82;84.13
34506;BME280;20748;42.632;23.198;2023-07-29T04:18:34;91991.69;;;14.70;84.53
34506;BME280;20748;42.632;23.198;2023-07-29T04:21:06;91992.28;;;14.76;85.06
34506;BME280;20748;42.632;23.198;2023-07-29T04:23:39;91997.22;;;14.77;85.30
34506;BME280;20748;42.632;23.198;2023-07-29T04:26:12;91992.41;;;14.80;84.86
34506;BME280;20748;42.632;23.198;2023-07-29T04:28:45;91997.13;;;14.86;84.66
34506;BME280;20748;42.632;23.198;2023-07-29T04:31:17;91993.28;;;14.84;85.52
34506;BME280;20748;42.632;23.198;2023-07-29T04:33:49;91993.53;;;14.91;84.94
34506;BME280;20748;42.632;23.198;2023-07-29T04:36:22;91998.06;;;15.03;84.73
34506;BME280;20748;42.632;23.198;2023-07-29T04:38:54;91994.13;;;15.09;85.11
34506;BME280;20748;42.632;23.198;2023-07-29T04:41:27;92000.38;;;15.17;85.44
34506;BME280;20748;42.632;23.198;2023-07-29T04:44:00;92004.22;;;15.20;85.55
34506;BME280;20748;42.632;23.198;2023-07-29T04:46:32;92002.81;;;15.22;85.83
34506;BME280;20748;42.632;23.198;2023-07-29T04:49:05;91990.53;;;15.26;86.04
34506;BME280;20748;42.632;23.198;2023-07-29T04:51:38;92007.88;;;15.40;85.96
34506;BME280;20748;42.632;23.198;2023-07-29T04:54:10;92009.50;;;15.44;86.02
34506;BME280;20748;42.632;23.198;2023-07-29T04:56:43;92006.09;;;15.56;85.32
34506;BME280;20748;42.632;23.198;2023-07-29T04:59:16;92018.81;;;15.67;85.64
34506;BME280;20748;42.632;23.198;2023-07-29T05:01:48;92013.00;;;15.74;85.25
34506;BME280;20748;42.632;23.198;2023-07-29T05:04:23;92020.13;;;15.86;83.78
34506;BME280;20748;42.632;23.198;2023-07-29T05:06:55;92020.69;;;15.91;85.15
34506;BME280;20748;42.632;23.198;2023-07-29T05:09:28;92012.25;;;15.98;85.11
34506;BME280;20748;42.632;23.198;2023-07-29T05:12:01;92011.47;;;16.10;84.03
34506;BME280;20748;42.632;23.198;2023-07-29T05:14:34;92023.84;;;16.09;85.61
34506;BME280;20748;42.632;23.198;2023-07-29T05:17:06;92027.13;;;16.19;84.20
34506;BME280;20748;42.632;23.198;2023-07-29T05:19:39;92027.53;;;16.33;83.98
34506;BME280;20748;42.632;23.198;2023-07-29T05:22:11;92029.91;;;16.51;82.71
34506;BME280;20748;42.632;23.198;2023-07-29T05:24:44;92032.03;;;16.74;80.27
34506;BME280;20748;42.632;23.198;2023-07-29T05:27:16;92030.63;;;16.92;78.25
34506;BME280;20748;42.632;23.198;2023-07-29T05:29:49;92033.09;;;17.14;76.09
34506;BME280;20748;42.632;23.198;2023-07-29T05:32:22;92032.09;;;17.35;74.58
34506;BME280;20748;42.632;23.198;2023-07-29T05:34:55;92032.19;;;17.54;73.52
34506;BME280;20748;42.632;23.198;2023-07-29T05:37:28;92032.69;;;17.76;72.57
34506;BME280;20748;42.632;23.198;2023-07-29T05:40:01;92039.13;;;17.95;73.08
34506;BME280;20748;42.632;23.198;2023-07-29T05:42:34;92036.16;;;18.13;72.19
34506;BME280;20748;42.632;23.198;2023-07-29T05:45:09;92038.41;;;18.30;70.93
34506;BME280;20748;42.632;23.198;2023-07-29T05:47:41;92037.69;;;18.49;71.05
34506;BME280;20748;42.632;23.198;2023-07-29T05:50:14;92032.91;;;18.75;69.08
34506;BME280;20748;42.632;23.198;2023-07-29T05:52:46;92035.19;;;18.96;68.72
34506;BME280;20748;42.632;23.198;2023-07-29T05:55:19;92038.94;;;19.15;67.79
34506;BME280;20748;42.632;23.198;2023-07-29T05:57:52;92041.31;;;19.43;65.78
34506;BME280;20748;42.632;23.198;2023-07-29T06:00:25;92045.09;;;19.66;65.29
34506;BME280;20748;42.632;23.198;2023-07-29T06:02:57;92035.22;;;19.86;65.46
34506;BME280;20748;42.632;23.198;2023-07-29T06:05:30;92037.88;;;20.13;64.10
34506;BME280;20748;42.632;23.198;2023-07-29T06:08:02;92045.72;;;20.33;63.88
34506;BME280;20748;42.632;23.198;2023-07-29T06:10:36;92040.66;;;20.51;63.59
34506;BME280;20748;42.632;23.198;2023-07-29T06:13:08;92038.25;;;20.69;63.50
34506;BME280;20748;42.632;23.198;2023-07-29T06:15:42;92039.81;;;20.74;63.80
34506;BME280;20748;42.632;23.198;2023-07-29T06:18:14;92031.44;;;21.02;64.65
34506;BME280;20748;42.632;23.198;2023-07-29T06:20:47;92036.66;;;21.33;64.46
34506;BME280;20748;42.632;23.198;2023-07-29T06:23:19;92020.19;;;21.54;63.07
34506;BME280;20748;42.632;23.198;2023-07-29T06:25:52;92024.47;;;21.66;61.33
34506;BME280;20748;42.632;23.198;2023-07-29T06:28:24;92023.88;;;21.88;60.41
34506;BME280;20748;42.632;23.198;2023-07-29T06:30:57;92017.16;;;22.05;59.81
34506;BME280;20748;42.632;23.198;2023-07-29T06:33:29;92017.19;;;22.12;57.39
34506;BME280;20748;42.632;23.198;2023-07-29T06:36:03;92006.69;;;22.26;56.38
34506;BME280;20748;42.632;23.198;2023-07-29T06:38:35;92015.16;;;22.50;55.74
34506;BME280;20748;42.632;23.198;2023-07-29T06:41:08;92013.72;;;22.71;54.69
34506;BME280;20748;42.632;23.198;2023-07-29T06:43:43;92016.47;;;22.86;54.39
34506;BME280;20748;42.632;23.198;2023-07-29T06:46:16;92014.19;;;22.88;53.55
34506;BME280;20748;42.632;23.198;2023-07-29T06:48:49;92020.69;;;23.01;53.43
34506;BME280;20748;42.632;23.198;2023-07-29T06:51:21;92012.72;;;23.09;51.72
34506;BME280;20748;42.632;23.198;2023-07-29T06:53:53;92015.78;;;23.14;52.02
34506;BME280;20748;42.632;23.198;2023-07-29T06:56:26;92024.59;;;23.33;50.92
34506;BME280;20748;42.632;23.198;2023-07-29T06:58:58;92031.84;;;23.43;51.86
34506;BME280;20748;42.632;23.198;2023-07-29T07:01:31;92037.94;;;23.48;51.09
34506;BME280;20748;42.632;23.198;2023-07-29T07:04:03;92038.34;;;23.71;52.57
34506;BME280;20748;42.632;23.198;2023-07-29T07:06:36;92041.75;;;23.76;51.76
34506;BME280;20748;42.632;23.198;2023-07-29T07:09:08;92029.19;;;24.05;53.01
34506;BME280;20748;42.632;23.198;2023-07-29T07:11:41;92022.72;;;24.28;51.33
34506;BME280;20748;42.632;23.198;2023-07-29T07:14:13;92020.34;;;24.59;50.09
34506;BME280;20748;42.632;23.198;2023-07-29T07:16:46;92029.06;;;24.71;50.46
34506;BME280;20748;42.632;23.198;2023-07-29T07:19:18;92024.84;;;24.80;49.63
34506;BME280;20748;42.632;23.198;2023-07-29T07:21:51;92022.06;;;25.13;47.44
34506;BME280;20748;42.632;23.198;2023-07-29T07:24:23;92029.69;;;25.15;46.92
34506;BME280;20748;42.632;23.198;2023-07-29T07:26:56;92026.25;;;25.14;47.73
34506;BME280;20748;42.632;23.198;2023-07-29T07:29:28;92014.78;;;25.21;47.95
34506;BME280;20748;42.632;23.198;2023-07-29T07:32:02;92021.31;;;25.13;47.01
34506;BME280;20748;42.632;23.198;2023-07-29T07:34:35;92024.75;;;25.10;48.14
34506;BME280;20748;42.632;23.198;2023-07-29T07:37:07;92018.63;;;25.16;48.36
34506;BME280;20748;42.632;23.198;2023-07-29T07:39:40;92019.72;;;25.26;47.19
34506;BME280;20748;42.632;23.198;2023-07-29T07:42:12;92020.47;;;25.23;47.41
34506;BME280;20748;42.632;23.198;2023-07-29T07:44:44;92016.50;;;25.57;47.84
34506;BME280;20748;42.632;23.198;2023-07-29T07:47:18;92017.41;;;25.89;46.22
34506;BME280;20748;42.632;23.198;2023-07-29T07:49:50;92018.41;;;26.06;45.59
34506;BME280;20748;42.632;23.198;2023-07-29T07:52:23;92015.66;;;26.13;44.71
34506;BME280;20748;42.632;23.198;2023-07-29T07:54:55;92018.75;;;26.08;43.60
34506;BME280;20748;42.632;23.198;2023-07-29T07:57:28;92020.34;;;26.01;44.61
34506;BME280;20748;42.632;23.198;2023-07-29T08:00:01;92020.09;;;25.89;44.01
34506;BME280;20748;42.632;23.198;2023-07-29T08:02:45;92020.44;;;25.91;42.60
34506;BME280;20748;42.632;23.198;2023-07-29T08:05:17;92021.34;;;26.19;43.35
34506;BME280;20748;42.632;23.198;2023-07-29T08:07:50;92016.66;;;26.34;42.47
34506;BME280;20748;42.632;23.198;2023-07-29T08:10:22;92016.41;;;26.56;43.31
34506;BME280;20748;42.632;23.198;2023-07-29T08:12:55;92022.38;;;26.71;40.67
34506;BME280;20748;42.632;23.198;2023-07-29T08:15:27;92029.47;;;26.85;40.89
34506;BME280;20748;42.632;23.198;2023-07-29T08:18:00;92029.00;;;26.93;40.21
34506;BME280;20748;42.632;23.198;2023-07-29T08:20:33;92028.66;;;26.91;41.69
34506;BME280;20748;42.632;23.198;2023-07-29T08:23:06;92033.19;;;26.98;40.42
34506;BME280;20748;42.632;23.198;2023-07-29T08:25:38;92036.41;;;27.17;39.45
34506;BME280;20748;42.632;23.198;2023-07-29T08:28:10;92032.59;;;27.14;40.82
34506;BME280;20748;42.632;23.198;2023-07-29T08:30:43;92032.31;;;27.05;38.18
34506;BME280;20748;42.632;23.198;2023-07-29T08:33:16;92029.66;;;27.36;37.76
34506;BME280;20748;42.632;23.198;2023-07-29T08:35:48;92035.31;;;27.69;36.47
34506;BME280;20748;42.632;23.198;2023-07-29T08:38:21;92035.47;;;28.10;35.46
34506;BME280;20748;42.632;23.198;2023-07-29T08:40:58;92034.13;;;28.46;35.55
34506;BME280;20748;42.632;23.198;2023-07-29T08:43:34;92030.97;;;28.71;35.47
34506;BME280;20748;42.632;23.198;2023-07-29T08:46:10;92024.38;;;28.76;35.78
34506;BME280;20748;42.632;23.198;2023-07-29T08:48:45;92032.44;;;28.76;35.87
34506;BME280;20748;42.632;23.198;2023-07-29T08:51:19;92028.03;;;28.86;33.88
34506;BME280;20748;42.632;23.198;2023-07-29T08:53:53;92021.88;;;28.85;35.04
34506;BME280;20748;42.632;23.198;2023-07-29T08:56:26;92019.75;;;28.56;34.13
34506;BME280;20748;42.632;23.198;2023-07-29T08:58:59;92016.44;;;28.48;34.76
34506;BME280;20748;42.632;23.198;2023-07-29T09:01:34;92020.31;;;28.67;35.14
34506;BME280;20748;42.632;23.198;2023-07-29T09:04:07;92020.50;;;28.57;35.00
34506;BME280;20748;42.632;23.198;2023-07-29T09:06:40;92017.41;;;28.58;34.47
34506;BME280;20748;42.632;23.198;2023-07-29T09:09:14;92020.16;;;28.75;35.02
34506;BME280;20748;42.632;23.198;2023-07-29T09:11:46;92017.06;;;28.76;34.13
34506;BME280;20748;42.632;23.198;2023-07-29T09:14:19;92014.50;;;29.30;33.84
34506;BME280;20748;42.632;23.198;2023-07-29T09:16:52;92016.34;;;29.33;34.09
34506;BME280;20748;42.632;23.198;2023-07-29T09:19:26;92016.16;;;29.24;33.77
34506;BME280;20748;42.632;23.198;2023-07-29T09:21:58;92008.53;;;29.59;32.74
34506;BME280;20748;42.632;23.198;2023-07-29T09:24:31;92004.06;;;29.85;33.94
34506;BME280;20748;42.632;23.198;2023-07-29T09:27:04;92006.19;;;29.78;32.64
34506;BME280;20748;42.632;23.198;2023-07-29T09:29:37;92009.91;;;29.47;32.18
34506;BME280;20748;42.632;23.198;2023-07-29T09:32:19;92002.25;;;29.45;31.98
34506;BME280;20748;42.632;23.198;2023-07-29T09:34:52;92003.31;;;29.68;32.27
34506;BME280;20748;42.632;23.198;2023-07-29T09:37:25;92003.28;;;29.52;32.17
34506;BME280;20748;42.632;23.198;2023-07-29T09:39:57;92009.34;;;29.56;31.69
34506;BME280;20748;42.632;23.198;2023-07-29T09:42:30;91997.09;;;29.71;32.28
34506;BME280;20748;42.632;23.198;2023-07-29T09:45:03;91989.47;;;29.86;31.27
34506;BME280;20748;42.632;23.198;2023-07-29T09:47:35;91989.94;;;29.98;32.58
34506;BME280;20748;42.632;23.198;2023-07-29T09:50:09;91992.66;;;30.14;31.20
34506;BME280;20748;42.632;23.198;2023-07-29T09:52:42;91988.59;;;30.06;31.30
34506;BME280;20748;42.632;23.198;2023-07-29T09:55:17;91993.34;;;30.48;30.42
34506;BME280;20748;42.632;23.198;2023-07-29T09:57:53;91987.75;;;30.85;29.01
34506;BME280;20748;42.632;23.198;2023-07-29T10:00:26;91984.22;;;31.01;30.50
34506;BME280;20748;42.632;23.198;2023-07-29T10:02:59;91981.41;;;30.92;30.95
34506;BME280;20748;42.632;23.198;2023-07-29T10:05:34;91982.66;;;30.74;30.13
34506;BME280;20748;42.632;23.198;2023-07-29T10:08:07;91974.13;;;31.18;27.99
34506;BME280;20748;42.632;23.198;2023-07-29T10:10:42;91976.28;;;31.24;28.99
34506;BME280;20748;42.632;23.198;2023-07-29T10:13:15;91968.28;;;31.07;29.67
34506;BME280;20748;42.632;23.198;2023-07-29T10:15:48;91967.69;;;30.73;29.71
34506;BME280;20748;42.632;23.198;2023-07-29T10:18:22;91963.81;;;30.74;30.48
34506;BME280;20748;42.632;23.198;2023-07-29T10:20:57;91965.91;;;30.66;29.76
34506;BME280;20748;42.632;23.198;2023-07-29T10:23:42;91965.00;;;30.73;29.79
34506;BME280;20748;42.632;23.198;2023-07-29T10:26:16;91956.13;;;31.15;30.31
34506;BME280;20748;42.632;23.198;2023-07-29T10:28:52;91954.53;;;31.31;30.03
34506;BME280;20748;42.632;23.198;2023-07-29T10:31:27;91956.44;;;31.69;28.73
34506;BME280;20748;42.632;23.198;2023-07-29T10:34:01;91954.19;;;31.68;28.94
34506;BME280;20748;42.632;23.198;2023-07-29T10:36:35;91953.03;;;32.04;27.50
34506;BME280;20748;42.632;23.198;2023-07-29T10:39:08;91947.09;;;32.09;27.44
34506;BME280;20748;42.632;23.198;2023-07-29T10:41:55;91933.09;;;32.01;27.70
34506;BME280;20748;42.632;23.198;2023-07-29T10:44:50;91947.47;;;32.56;26.34
34506;BME280;20748;42.632;23.198;2023-07-29T10:47:24;91945.00;;;32.71;26.48
34506;BME280;20748;42.632;23.198;2023-07-29T10:49:58;91938.66;;;32.87;25.38
34506;BME280;20748;42.632;23.198;2023-07-29T10:52:40;91936.53;;;33.14;26.16
34506;BME280;20748;42.632;23.198;2023-07-29T10:55:25;91937.78;;;33.22;25.19
34506;BME280;20748;42.632;23.198;2023-07-29T10:58:05;91935.59;;;32.98;25.42
34506;BME280;20748;42.632;23.198;2023-07-29T11:00:38;91930.59;;;32.07;26.35
34506;BME280;20748;42.632;23.198;2023-07-29T11:03:12;91922.53;;;31.94;26.41
34506;BME280;20748;42.632;23.198;2023-07-29T11:05:48;91932.81;;;32.44;26.97
34506;BME280;20748;42.632;23.198;2023-07-29T11:08:26;91927.56;;;32.40;26.22
34506;BME280;20748;42.632;23.198;2023-07-29T11:11:02;91926.53;;;32.25;25.61
34506;BME280;20748;42.632;23.198;2023-07-29T11:13:37;91924.59;;;31.90;26.48
34506;BME280;20748;42.632;23.198;2023-07-29T11:16:10;91927.22;;;32.16;25.84
34506;BME280;20748;42.632;23.198;2023-07-29T11:18:44;91920.63;;;32.17;25.21
34506;BME280;20748;42.632;23.198;2023-07-29T11:21:18;91934.69;;;32.12;25.15
34506;BME280;20748;42.632;23.198;2023-07-29T11:23:53;91921.97;;;32.35;24.70
34506;BME280;20748;42.632;23.198;2023-07-29T11:26:26;91930.06;;;32.57;26.45
34506;BME280;20748;42.632;23.198;2023-07-29T11:28:59;91927.13;;;32.42;26.35
34506;BME280;20748;42.632;23.198;2023-07-29T11:31:39;91917.25;;;32.26;24.77
34506;BME280;20748;42.632;23.198;2023-07-29T11:34:12;91916.72;;;31.96;25.67
34506;BME280;20748;42.632;23.198;2023-07-29T11:36:48;91915.78;;;32.12;25.35
34506;BME280;20748;42.632;23.198;2023-07-29T11:39:21;91919.47;;;32.05;24.72
34506;BME280;20748;42.632;23.198;2023-07-29T11:41:54;91911.59;;;32.55;24.39
34506;BME280;20748;42.632;23.198;2023-07-29T11:44:26;91907.63;;;32.92;24.07
34506;BME280;20748;42.632;23.198;2023-07-29T11:46:59;91905.72;;;32.79;24.16
34506;BME280;20748;42.632;23.198;2023-07-29T11:49:32;91911.38;;;32.63;24.85
34506;BME280;20748;42.632;23.198;2023-07-29T11:52:07;91903.44;;;32.68;25.32
34506;BME280;20748;42.632;23.198;2023-07-29T11:54:40;91904.59;;;32.90;24.98
34506;BME280;20748;42.632;23.198;2023-07-29T11:57:13;91907.13;;;32.84;24.07
34506;BME280;20748;42.632;23.198;2023-07-29T11:59:46;91906.19;;;32.78;24.42
34506;BME280;20748;42.632;23.198;2023-07-29T12:02:20;91887.38;;;32.65;25.34
34506;BME280;20748;42.632;23.198;2023-07-29T12:04:53;91900.34;;;32.79;24.67
34506;BME280;20748;42.632;23.198;2023-07-29T12:07:27;91895.72;;;33.12;23.42
34506;BME280;20748;42.632;23.198;2023-07-29T12:10:00;91889.28;;;33.18;24.21
34506;BME280;20748;42.632;23.198;2023-07-29T12:12:38;91884.03;;;32.83;23.79
34506;BME280;20748;42.632;23.198;2023-07-29T12:15:12;91889.53;;;32.79;24.75
34506;BME280;20748;42.632;23.198;2023-07-29T12:17:45;91881.09;;;33.00;23.69
34506;BME280;20748;42.632;23.198;2023-07-29T12:20:19;91889.31;;;33.28;24.93
34506;BME280;20748;42.632;23.198;2023-07-29T12:22:53;91888.16;;;32.75;23.90
34506;BME280;20748;42.632;23.198;2023-07-29T12:25:27;91884.03;;;32.92;24.31
34506;BME280;20748;42.632;23.198;2023-07-29T12:28:03;91885.03;;;32.76;24.41
34506;BME280;20748;42.632;23.198;2023-07-29T12:30:41;91874.81;;;33.03;23.27
34506;BME280;20748;42.632;23.198;2023-07-29T12:33:29;91870.19;;;32.49;25.22
34506;BME280;20748;42.632;23.198;2023-07-29T12:36:02;91875.56;;;32.49;26.55
34506;BME280;20748;42.632;23.198;2023-07-29T12:38:35;91877.91;;;32.60;25.50
34506;BME280;20748;42.632;23.198;2023-07-29T12:41:08;91878.03;;;32.57;24.62
34506;BME280;20748;42.632;23.198;2023-07-29T12:43:41;91875.56;;;32.72;24.72
34506;BME280;20748;42.632;23.198;2023-07-29T12:46:13;91877.75;;;31.97;24.42
34506;BME280;20748;42.632;23.198;2023-07-29T12:48:46;91876.94;;;32.09;25.00
34506;BME280;20748;42.632;23.198;2023-07-29T12:51:18;91885.47;;;31.85;25.26
34506;BME280;20748;42.632;23.198;2023-07-29T12:53:50;91879.94;;;31.89;24.92
34506;BME280;20748;42.632;23.198;2023-07-29T12:56:23;91870.31;;;31.53;24.90
34506;BME280;20748;42.632;23.198;2023-07-29T12:58:56;91862.22;;;31.53;25.35
34506;BME280;20748;42.632;23.198;2023-07-29T13:01:29;91870.47;;;31.71;26.46
34506;BME280;20748;42.632;23.198;2023-07-29T13:04:01;91876.75;;;31.68;27.38
34506;BME280;20748;42.632;23.198;2023-07-29T13:06:33;91880.47;;;31.23;26.26
34506;BME280;20748;42.632;23.198;2023-07-29T13:09:06;91874.13;;;31.16;26.29
34506;BME280;20748;42.632;23.198;2023-07-29T13:11:39;91870.78;;;31.12;27.32
34506;BME280;20748;42.632;23.198;2023-07-29T13:14:11;91868.31;;;31.05;26.02
34506;BME280;20748;42.632;23.198;2023-07-29T13:16:44;91865.59;;;31.05;26.76
34506;BME280;20748;42.632;23.198;2023-07-29T13:19:16;91868.72;;;31.16;25.47
34506;BME280;20748;42.632;23.198;2023-07-29T13:21:50;91860.00;;;31.25;24.54